East Monbo, North Carolina
Current Conditions -  °F | °C
As of 12:35 PM on Tuesday 21 Oct 2014 (Local Time) from KSVH Reporting Station
Scattered Clouds Scattered Clouds  
Wind Chill: 68°   Ceiling: Unl
Heat Index: 68°   Visibility: 10mi
Dew Point: 50°   Wind: 6mph
Humidity: 52%   Direction: 240°WSW
Pressure: 29.92"   Gusts: NA
Location:  35.8306°N, 80.9003°W
Report Text: KSVH 211635Z AUTO 24005KT 10SM SCT041 SCT049 20/10 A2992 RMK AO2 T02000099
Loading
Personal Weather Stations






























Interactive Weather Map
Tropical Storm Tracking
New forecast layout! Learn more

10-Day Weather Forecast

Advertisements
Track Severe Weather on mobile